Jacksonville, Oregon
Current Conditions -  °F | °C
As of 12:38 AM on Friday 31 Oct 2014 (Local Time) from KMFR Reporting Station
Light Rain Light Rain  
Wind Chill: 56°   Ceiling: 3600
Heat Index: 56°   Visibility: 8mi
Dew Point: 54°   Wind: 7mph
Humidity: 93%   Direction: 70°ENE
Pressure: 29.8"   Gusts: NA
Location:  42.31°N, 122.97°W
Report Text: KMFR 310738Z AUTO 07006KT 8SM -RA SCT019 BKN036 OVC045 13/12 A2980 RMK AO2 P0009 T01330122
Loading
Personal Weather Stations






























Interactive Weather Map
Tropical Storm Tracking
New forecast layout! Learn more

10-Day Weather Forecast

Advertisements
Track Severe Weather on mobile